Schneifelwetter: Wetterstation Hallschlag, 537 m . NN
Wetterdaten: Freitag, 14.09.2012
Datum Zeit Temp. A. Feuchte A. Luftdruck Regen Wind Richtung Richtung Sonnenschein T Regen Taupunkt Windchill
14.09.2012 00:14 4,3 C 92 % 1017 hPa 0,0 l/m 0,0 km/h (0 Bft) W-NW 295 0 min 0 min 3,1 C 4,3 C
14.09.2012 00:29 4,3 C 92 % 1017 hPa 0,0 l/m 0,0 km/h (0 Bft) W-NW 295 0 min 0 min 3,1 C 4,3 C
14.09.2012 00:44 4,6 C 93 % 1017 hPa 0,0 l/m 0,0 km/h (0 Bft) W-NW 295 0 min 0 min 3,6 C 4,6 C
14.09.2012 00:59 4,7 C 93 % 1017 hPa 0,0 l/m 0,0 km/h (0 Bft) W-NW 295 0 min 0 min 3,7 C 4,7 C
14.09.2012 01:14 5,2 C 94 % 1017 hPa 0,0 l/m 0,0 km/h (0 Bft) W-NW 295 0 min 0 min 4,3 C 5,2 C
14.09.2012 01:29 5,6 C 94 % 1017 hPa 0,0 l/m 0,0 km/h (0 Bft) W-NW 295 0 min 0 min 4,7 C 5,6 C
14.09.2012 01:44 6,1 C 94 % 1017 hPa 0,0 l/m 0,0 km/h (0 Bft) W-NW 295 0 min 0 min 5,2 C 6,1 C
14.09.2012 01:59 6,2 C 94 % 1017 hPa 0,0 l/m 0,0 km/h (0 Bft) W-NW 295 0 min 0 min 5,3 C 6,2 C
14.09.2012 02:14 6,3 C 94 % 1017 hPa 0,0 l/m 0,0 km/h (0 Bft) W-NW 295 0 min 0 min 5,4 C 6,3 C
14.09.2012 02:29 6,3 C 94 % 1016 hPa 0,0 l/m 0,0 km/h (0 Bft) W-NW 295 0 min 0 min 5,4 C 6,3 C
14.09.2012 02:44 6,4 C 94 % 1016 hPa 0,0 l/m 0,0 km/h (0 Bft) W-NW 295 0 min 0 min 5,5 C 6,4 C
14.09.2012 02:59 6,5 C 94 % 1016 hPa 0,0 l/m 0,0 km/h (0 Bft) W-NW 295 0 min 0 min 5,6 C 6,5 C
14.09.2012 03:14 6,7 C 94 % 1016 hPa 0,0 l/m 0,0 km/h (0 Bft) W-NW 295 0 min 0 min 5,8 C 6,7 C
14.09.2012 03:29 6,8 C 94 % 1016 hPa 0,0 l/m 0,0 km/h (0 Bft) W-NW 295 0 min 0 min 5,9 C 6,8 C
14.09.2012 03:44 6,9 C 94 % 1016 hPa 0,0 l/m 0,0 km/h (0 Bft) W-NW 295 0 min 0 min 6,0 C 6,9 C
14.09.2012 03:59 7,0 C 94 % 1016 hPa 0,0 l/m 9,4 km/h (2 Bft) W-SW22.5 245 0 min 0 min 6,1 C 4,7 C
14.09.2012 04:14 6,9 C 95 % 1016 hPa 0,0 l/m 2,8 km/h (1 Bft) W-SW 255 0 min 0 min 6,2 C 6,9 C
14.09.2012 04:29 6,8 C 95 % 1016 hPa 0,0 l/m 0,3 km/h (0 Bft) W-SW 255 0 min 0 min 6,1 C 6,8 C
14.09.2012 04:44 6,7 C 95 % 1016 hPa 0,0 l/m 6,5 km/h (2 Bft) W-SW 255 0 min 0 min 6,0 C 6,6 C
14.09.2012 04:59 6,5 C 95 % 1015 hPa 0,0 l/m 9,4 km/h (2 Bft) W-SW 255 0 min 0 min 5,8 C 4,1 C
14.09.2012 05:14 6,4 C 95 % 1015 hPa 0,0 l/m 10,0 km/h (2 Bft) W-SW 255 0 min 0 min 5,7 C 3,6 C
14.09.2012 05:29 6,4 C 95 % 1015 hPa 0,0 l/m 6,5 km/h (2 Bft) W-SW 255 0 min 0 min 5,7 C 6,3 C
14.09.2012 05:45 6,1 C 95 % 1015 hPa 0,0 l/m 6,0 km/h (2 Bft) W-SW 255 0 min 0 min 5,4 C 6,1 C
14.09.2012 06:00 5,7 C 94 % 1015 hPa 0,0 l/m 8,7 km/h (2 Bft) W-SW 255 0 min 0 min 4,8 C 3,8 C
14.09.2012 06:15 5,2 C 94 % 1015 hPa 0,0 l/m 7,8 km/h (2 Bft) W-SW 255 0 min 0 min 4,3 C 4,0 C
14.09.2012 06:30 4,8 C 94 % 1015 hPa 0,0 l/m 11,0 km/h (2 Bft) W-SW 255 0 min 0 min 3,9 C 1,2 C
14.09.2012 06:45 4,8 C 95 % 1015 hPa 0,0 l/m 12,3 km/h (3 Bft) W-SW22.5 255 0 min 0 min 4,1 C 0,3 C
14.09.2012 07:00 4,7 C 95 % 1015 hPa 0,0 l/m 14,0 km/h (3 Bft) W-SW 245 0 min 0 min 4,0 C -0,8 C
14.09.2012 07:15 4,9 C 95 % 1015 hPa 0,0 l/m 11,5 km/h (2 Bft) W-SW 245 0 min 0 min 4,2 C 1,0 C
14.09.2012 07:29 5,2 C 96 % 1014 hPa 0,0 l/m 15,3 km/h (3 Bft) W-SW67.5 255 0 min 0 min 4,6 C -0,8 C
14.09.2012 07:44 5,3 C 96 % 1014 hPa 0,0 l/m 15,3 km/h (3 Bft) W22.5 260 0 min 0 min 4,7 C -0,7 C
14.09.2012 08:00 5,7 C 96 % 1014 hPa 0,0 l/m 18,9 km/h (3 Bft) W-SW22.5 245 0 min 0 min 5,1 C -1,8 C
14.09.2012 08:14 6,4 C 97 % 1014 hPa 0,0 l/m 17,8 km/h (3 Bft) W-SW45 245 0 min 0 min 6,0 C -0,5 C
14.09.2012 08:29 6,8 C 96 % 1014 hPa 0,0 l/m 18,3 km/h (3 Bft) W22.5 260 0 min 0 min 6,2 C -0,2 C
14.09.2012 08:44 7,2 C 97 % 1014 hPa 0,0 l/m 21,3 km/h (4 Bft) W-SW45 255 0 min 0 min 6,8 C -0,8 C
14.09.2012 08:59 7,8 C 97 % 1014 hPa 0,0 l/m 28,8 km/h (4 Bft) W45 260 0 min 0 min 7,4 C -2,2 C
14.09.2012 09:14 8,4 C 96 % 1014 hPa 0,0 l/m 29,5 km/h (5 Bft) W45 265 0 min 0 min 7,8 C -1,5 C
14.09.2012 09:30 8,6 C 95 % 1014 hPa 0,0 l/m 34,9 km/h (5 Bft) W22.5 270 0 min 0 min 7,8 C -2,3 C
14.09.2012 09:44 9,0 C 95 % 1014 hPa 0,0 l/m 34,5 km/h (5 Bft) W67.5 270 0 min 0 min 8,2 C -1,7 C
14.09.2012 09:59 9,6 C 92 % 1014 hPa 0,0 l/m 31,4 km/h (5 Bft) W-SW45 245 0 min 0 min 8,4 C -0,2 C
14.09.2012 10:14 10,3 C 89 % 1013 hPa 0,0 l/m 36,8 km/h (5 Bft) W-SW45 245 0 min 0 min 8,6 C -0,2 C
14.09.2012 10:29 10,7 C 85 % 1014 hPa 0,0 l/m 37,8 km/h (5 Bft) W45 260 0 min 0 min 8,3 C 0,3 C
14.09.2012 10:44 11,0 C 82 % 1013 hPa 0,0 l/m 42,1 km/h (6 Bft) W45 260 0 min 0 min 8,0 C 0,1 C
14.09.2012 11:00 11,3 C 78 % 1014 hPa 0,0 l/m 45,7 km/h (6 Bft) W45 280 0 min 0 min 7,6 C 0,1 C
14.09.2012 11:14 11,6 C 77 % 1014 hPa 0,0 l/m 50,9 km/h (7 Bft) W45 270 0 min 0 min 7,7 C 0,1 C
14.09.2012 11:29 12,4 C 77 % 1014 hPa 0,0 l/m 41,9 km/h (6 Bft) W22.5 275 0 min 0 min 8,5 C 2,2 C
14.09.2012 11:44 13,0 C 73 % 1014 hPa 0,0 l/m 50,0 km/h (6 Bft) W45 260 0 min 0 min 8,3 C 2,3 C
14.09.2012 11:59 12,4 C 73 % 1014 hPa 0,0 l/m 36,2 km/h (5 Bft) W67.5 270 0 min 0 min 7,7 C 3,0 C
14.09.2012 12:14 12,1 C 72 % 1014 hPa 0,0 l/m 35,6 km/h (5 Bft) W-SW67.5 240 0 min 0 min 7,2 C 2,6 C
14.09.2012 12:30 11,6 C 75 % 1013 hPa 0,0 l/m 32,5 km/h (5 Bft) W-SW45 255 0 min 0 min 7,3 C 2,4 C
14.09.2012 12:44 11,6 C 77 % 1013 hPa 0,0 l/m 39,0 km/h (6 Bft) W-SW67.5 245 0 min 0 min 7,7 C 1,4 C
14.09.2012 12:59 11,5 C 78 % 1013 hPa 0,0 l/m 38,4 km/h (5 Bft) W-SW67.5 240 0 min 0 min 7,8 C 1,3 C
14.09.2012 13:14 11,9 C 79 % 1013 hPa 0,0 l/m 36,7 km/h (5 Bft) W-SW45 250 0 min 0 min 8,4 C 2,2 C
14.09.2012 13:29 11,8 C 80 % 1013 hPa 0,0 l/m 33,7 km/h (5 Bft) W-SW45 240 0 min 0 min 8,5 C 2,5 C
14.09.2012 13:44 11,6 C 81 % 1013 hPa 0,0 l/m 34,3 km/h (5 Bft) W-SW22.5 250 0 min 0 min 8,5 C 2,1 C
14.09.2012 14:00 11,8 C 83 % 1013 hPa 0,0 l/m 32,6 km/h (5 Bft) W45 260 0 min 0 min 9,0 C 2,7 C
14.09.2012 14:14 12,0 C 83 % 1013 hPa 0,0 l/m 27,3 km/h (4 Bft) W-SW22.5 255 0 min 0 min 9,2 C 4,0 C
14.09.2012 14:29 12,2 C 83 % 1012 hPa 0,0 l/m 29,5 km/h (5 Bft) W-SW45 240 0 min 0 min 9,4 C 3,8 C
14.09.2012 14:44 12,3 C 83 % 1012 hPa 0,0 l/m 20,5 km/h (4 Bft) W-SW45 240 0 min 0 min 9,5 C 6,1 C
14.09.2012 14:59 12,2 C 84 % 1012 hPa 0,0 l/m 32,6 km/h (5 Bft) W-SW45 250 0 min 0 min 9,6 C 3,3 C
14.09.2012 15:14 12,2 C 85 % 1012 hPa 0,0 l/m 31,2 km/h (5 Bft) W-SW45 255 0 min 0 min 9,8 C 3,5 C
14.09.2012 15:30 12,2 C 86 % 1012 hPa 0,0 l/m 24,3 km/h (4 Bft) SW45 230 0 min 0 min 9,9 C 5,0 C
14.09.2012 15:44 12,0 C 87 % 1012 hPa 0,0 l/m 23,6 km/h (4 Bft) SW67.5 220 0 min 0 min 9,9 C 4,9 C
14.09.2012 15:59 12,1 C 87 % 1012 hPa 0,0 l/m 28,8 km/h (4 Bft) W-SW67.5 240 0 min 0 min 10,0 C 3,8 C
14.09.2012 16:14 12,1 C 87 % 1012 hPa 0,0 l/m 27,8 km/h (4 Bft) W-SW67.5 245 0 min 0 min 10,0 C 4,1 C
14.09.2012 16:29 11,8 C 89 % 1011 hPa 0,0 l/m 32,3 km/h (5 Bft) W-SW45 255 0 min 0 min 10,0 C 2,8 C
14.09.2012 16:44 11,6 C 90 % 1011 hPa 0,0 l/m 29,0 km/h (5 Bft) W45 260 0 min 0 min 10,0 C 3,1 C
14.09.2012 17:00 11,5 C 91 % 1011 hPa 0,0 l/m 28,6 km/h (4 Bft) W-SW45 245 0 min 0 min 10,1 C 3,1 C
14.09.2012 17:14 11,4 C 92 % 1011 hPa 0,0 l/m 27,2 km/h (4 Bft) W-SW67.5 255 0 min 0 min 10,1 C 3,2 C
14.09.2012 17:29 11,4 C 92 % 1011 hPa 0,0 l/m 22,3 km/h (4 Bft) W22.5 260 0 min 0 min 10,1 C 4,4 C
14.09.2012 17:44 11,5 C 93 % 1011 hPa 0,0 l/m 19,8 km/h (3 Bft) SW45 220 0 min 0 min 10,4 C 5,3 C
14.09.2012 17:59 11,5 C 93 % 1011 hPa 0,0 l/m 18,1 km/h (3 Bft) W22.5 260 0 min 0 min 10,4 C 5,8 C
14.09.2012 18:14 11,4 C 93 % 1011 hPa 0,0 l/m 24,0 km/h (4 Bft) SW22.5 230 0 min 0 min 10,3 C 4,0 C
14.09.2012 18:29 11,3 C 93 % 1011 hPa 0,0 l/m 23,6 km/h (4 Bft) W-SW22.5 255 0 min 0 min 10,2 C 3,9 C
14.09.2012 18:44 11,3 C 94 % 1011 hPa 1,5 l/m 18,3 km/h (3 Bft) W-SW45 240 0 min 15 min 10,4 C 5,5 C
14.09.2012 18:59 11,3 C 94 % 1012 hPa 0,3 l/m 17,4 km/h (3 Bft) W-SW22.5 245 0 min 15 min 10,4 C 5,8 C
14.09.2012 19:14 11,3 C 94 % 1012 hPa 0,0 l/m 16,2 km/h (3 Bft) W-SW22.5 245 0 min 0 min 10,4 C 6,2 C
14.09.2012 19:29 11,3 C 94 % 1012 hPa 0,0 l/m 17,0 km/h (3 Bft) W-SW45 250 0 min 0 min 10,4 C 6,0 C
14.09.2012 19:44 11,2 C 94 % 1012 hPa 0,0 l/m 16,0 km/h (3 Bft) W22.5 260 0 min 0 min 10,3 C 6,2 C
14.09.2012 19:59 11,2 C 95 % 1012 hPa 0,0 l/m 11,5 km/h (2 Bft) W-SW 255 0 min 0 min 10,4 C 8,1 C
14.09.2012 20:14 11,2 C 95 % 1012 hPa 0,0 l/m 16,8 km/h (3 Bft) W-SW45 250 0 min 0 min 10,4 C 5,9 C
14.09.2012 20:29 11,2 C 95 % 1012 hPa 0,0 l/m 18,6 km/h (3 Bft) W-SW45 250 0 min 0 min 10,4 C 5,3 C
14.09.2012 20:44 11,3 C 95 % 1012 hPa 0,0 l/m 17,4 km/h (3 Bft) W22.5 260 0 min 0 min 10,5 C 5,8 C
14.09.2012 20:59 11,3 C 95 % 1012 hPa 0,3 l/m 13,8 km/h (3 Bft) W22.5 260 0 min 15 min 10,5 C 7,2 C
14.09.2012 21:15 11,3 C 95 % 1012 hPa 0,0 l/m 18,8 km/h (3 Bft) W22.5 260 0 min 0 min 10,5 C 5,3 C
14.09.2012 21:29 11,3 C 96 % 1012 hPa 0,0 l/m 22,0 km/h (4 Bft) W45 265 0 min 0 min 10,7 C 4,4 C
14.09.2012 21:44 11,3 C 96 % 1012 hPa 0,0 l/m 19,3 km/h (3 Bft) W-SW67.5 255 0 min 0 min 10,7 C 5,2 C
14.09.2012 21:59 11,3 C 96 % 1012 hPa 0,0 l/m 18,3 km/h (3 Bft) W-SW45 250 0 min 0 min 10,7 C 5,5 C
14.09.2012 22:14 11,3 C 96 % 1012 hPa 0,0 l/m 14,6 km/h (3 Bft) W-SW45 250 0 min 0 min 10,7 C 6,9 C
14.09.2012 22:29 11,3 C 96 % 1012 hPa 0,0 l/m 14,7 km/h (3 Bft) W22.5 260 0 min 0 min 10,7 C 6,8 C
14.09.2012 22:45 11,3 C 96 % 1012 hPa 0,0 l/m 12,1 km/h (2 Bft) W-SW22.5 255 0 min 0 min 10,7 C 8,0 C
14.09.2012 22:59 11,2 C 95 % 1012 hPa 0,0 l/m 20,8 km/h (4 Bft) W-NW67.5 295 0 min 0 min 10,4 C 4,6 C
14.09.2012 23:14 10,8 C 95 % 1013 hPa 1,5 l/m 11,0 km/h (2 Bft) W67.5 270 0 min 15 min 10,0 C 7,9 C
14.09.2012 23:29 10,4 C 94 % 1013 hPa 0,0 l/m 7,7 km/h (2 Bft) W-NW22.5 285 0 min 0 min 9,5 C 9,5 C
14.09.2012 23:44 10,2 C 94 % 1013 hPa 0,0 l/m 1,3 km/h (1 Bft) W 270 0 min 0 min 9,3 C 10,2 C
14.09.2012 23:59 10,1 C 94 % 1013 hPa 0,0 l/m 0,0 km/h (0 Bft) W 270 0 min 0 min 9,2 C 10,1 C
_ Min-Zeit 00:14 12:14 16:29 - 00:14 - - - - 00:14 09:30
Minimum _ 4,3 C 72 % 1011 hPa - 0,0 km/h (0 Bft) - - - - 3,1 C -2,3 C
_ Max-Zeit 11:44 08:14 00:14 18:44 11:14 - - 00:14 18:44 21:29 23:44
Maximum _ 13,0 C 97 % 1017 hPa 1,5 l/m 50,9 km/h
W (7 Bft)
- - 0 min 15 min 10,7 C 10,2 C
Durchschnitt _ 9,3 C 91 % 1014 hPa #3,6 l/m 18,8 km/h (3 Bft) W-SW - #0 min. #1:00 h 7,8 C 3,9 C